Aérodrome :
LOGIN :

S'inscrire | Disclaimer

   EN    FR    IT 

 










Légende :    VFR   VFR Marginal   IFR   IFR Intensif   IFR Très Intensif
Visi : 
Plafond : 
>= 8 km
>= 3000ft
5 à 8 km
1000 à 3000 ft
1500m à 5 km
500 à 1000 ft
800 à 1500m
200 à 500 ft
< 800m
< 200 ft
Symboles :   Orages  Brouillard  Fortes neiges  Fortes précipitations  Vent > 20 kt
SIGMETs :   Divers  Orages  Givrage  Turbulence  Onde Orograph.  Cendres Volcan.






- Altitude de l'aérodrome : 302 ft
- Code IATA : CGN


EDDK - Cologne Bonn

DERNIER METAR :
  • 122120Z 09006KT 040V140 9999 FEW023 SCT045 20/18 Q1013 NOSIG

METARs EXPIRÉS :
  • 122050Z 15011KT 9999 -RA FEW027 SCT043 20/18 Q1014 NOSIG
  • 122020Z 11012KT 080V140 9999 -SHRA FEW020 FEW042CB 20/18 Q1014 RESHRA NOSIG
  • 121950Z 11010KT 070V140 9999 SHRA VCTS FEW022 SCT040CB 20/18 Q1014 BECMG NSW
  • 121920Z 15008KT 100V180 9999 SHRA VCTS FEW022 SCT040CB 19/18 Q1014 BECMG NSW
  • 121850Z 14008KT 9999 SHRA FEW022 SCT040CB 19/18 Q1014 RETS BECMG NSW

TAF TAF EDDK
Valide du 12 à 18h jusqu'au 14 à 00h UTC


121700Z 1218/1324 11004KT 9999 SCT045
PROB40
TEMPO 1304/1307 TSRA BKN040CB
BECMG 1309/1312 13009KT
PROB30
TEMPO 1315/1318 18015G30KT TSRA BKN040CB
BECMG 1316/1319 VRB03KT



MET'MAP, la Météo Aéronautique d'un coup d'oeil ! - Copyright ORBIFLY Décembre 2007 - Disclaimer

ORBIFLY MET'MAP TEAM :

Programmation & Développement : Alexandra Zaïnal
Sur une idée originale de : Baudouin d'Aumeries
Assistance à la programmation : Marc-Olivier Méhu
Soutien technique & logistique : Manuel Goepfert

Contact : metmap@orbifly.com




SOURCES & CREDITS :

   NOAA